createdAt,value
2022-12-14T00:01:45.111Z,22.63
2022-12-14T00:06:53.300Z,24.05
2022-12-14T00:11:55.385Z,22.77
2022-12-14T00:16:57.559Z,23.92
2022-12-14T00:22:01.104Z,23.80
2022-12-14T00:27:03.209Z,26.50
2022-12-14T00:32:05.498Z,26.42
2022-12-14T00:37:08.984Z,23.35
2022-12-14T00:42:11.290Z,22.58
2022-12-14T00:47:13.456Z,21.85
2022-12-14T00:52:16.950Z,22.23
2022-12-14T00:57:19.023Z,21.98
2022-12-14T01:02:21.213Z,23.33
2022-12-14T01:07:24.891Z,23.27
2022-12-14T01:12:26.989Z,23.60
2022-12-14T01:17:29.146Z,23.48
2022-12-14T01:22:32.709Z,21.83
2022-12-14T01:27:34.798Z,21.90
2022-12-14T01:32:36.874Z,20.73
2022-12-14T01:37:40.373Z,22.20
2022-12-14T01:42:42.510Z,23.08
2022-12-14T01:47:50.273Z,22.70
2022-12-14T01:52:57.173Z,20.67
2022-12-14T01:58:02.735Z,21.88
2022-12-14T02:03:07.740Z,21.75
2022-12-14T02:08:13.296Z,21.85
2022-12-14T02:13:19.939Z,21.25
2022-12-14T02:18:23.548Z,22.35
2022-12-14T02:23:58.813Z,19.88
2022-12-14T02:29:46.722Z,21.60
2022-12-14T02:34:58.239Z,20.73
2022-12-14T02:40:13.351Z,21.40
2022-12-14T02:45:27.309Z,21.50
2022-12-14T02:50:37.177Z,21.52
2022-12-14T02:55:45.129Z,20.48
2022-12-14T03:00:49.251Z,19.52
2022-12-14T03:05:59.300Z,19.33
2022-12-14T03:11:04.809Z,19.95
2022-12-14T03:16:13.132Z,19.30
2022-12-14T03:21:21.485Z,18.90
2022-12-14T03:26:28.991Z,19.92
2022-12-14T03:31:37.654Z,21.42
2022-12-14T03:36:44.068Z,19.92
2022-12-14T03:41:52.243Z,19.70
2022-12-14T03:47:05.814Z,18.60
2022-12-14T03:52:13.181Z,19.02
2022-12-14T03:57:23.746Z,21.05
2022-12-14T04:02:35.035Z,19.10
2022-12-14T04:07:49.021Z,19.50
2022-12-14T04:12:55.788Z,19.77
2022-12-14T04:18:05.303Z,19.35
2022-12-14T04:23:12.605Z,19.20
2022-12-14T04:28:19.737Z,18.27
2022-12-14T04:33:23.603Z,18.33
2022-12-14T04:38:33.155Z,20.77
2022-12-14T04:43:41.009Z,20.15
2022-12-14T04:48:48.825Z,17.58
2022-12-14T04:53:56.670Z,17.20
2022-12-14T04:58:59.046Z,17.23
2022-12-14T05:04:14.589Z,18.25
2022-12-14T05:09:24.716Z,18.40
2022-12-14T05:14:33.775Z,16.17
2022-12-14T05:19:44.214Z,18.25
2022-12-14T05:24:50.818Z,18.42
2022-12-14T05:29:52.870Z,16.25
2022-12-14T05:34:56.405Z,18.75
2022-12-14T05:39:58.510Z,16.55
2022-12-14T05:45:00.618Z,17.88
2022-12-14T05:50:06.743Z,18.90
2022-12-14T05:55:10.230Z,17.65
2022-12-14T06:00:13.624Z,17.42
2022-12-14T06:05:17.168Z,16.40
2022-12-14T06:10:19.459Z,17.10
2022-12-14T06:15:30.781Z,17.85
2022-12-14T06:20:43.295Z,19.70
2022-12-14T06:25:54.897Z,17.17
2022-12-14T06:30:57.141Z,17.88
2022-12-14T06:36:01.237Z,17.95
2022-12-14T06:41:08.201Z,17.00
2022-12-14T06:46:15.505Z,17.23
2022-12-14T06:51:20.272Z,21.20
2022-12-14T06:56:26.492Z,19.65
2022-12-14T07:06:37.052Z,16.98
2022-12-14T07:11:39.573Z,16.13
2022-12-14T07:16:46.500Z,18.50
2022-12-14T07:21:51.914Z,20.00
2022-12-14T07:26:53.999Z,18.38
2022-12-14T07:31:56.206Z,25.23
2022-12-14T07:36:59.766Z,24.20
2022-12-14T07:42:01.899Z,21.75
2022-12-14T07:47:04.230Z,21.70
2022-12-14T07:52:07.842Z,20.20
2022-12-14T07:57:09.990Z,17.02
2022-12-14T08:02:12.287Z,18.77
2022-12-14T08:07:16.002Z,20.08
2022-12-14T08:12:18.243Z,20.08
2022-12-14T08:17:20.481Z,37.90
2022-12-14T08:22:24.153Z,21.23
2022-12-14T08:27:26.392Z,19.67
2022-12-14T08:32:34.107Z,19.30
2022-12-14T08:37:41.658Z,23.00
2022-12-14T08:42:50.458Z,20.10
2022-12-14T08:47:52.733Z,21.97
2022-12-14T08:58:02.961Z,19.15
2022-12-14T09:03:05.326Z,18.55
2022-12-14T09:08:09.017Z,20.77
2022-12-14T09:13:11.650Z,21.05
2022-12-14T09:18:13.792Z,21.48
2022-12-14T09:23:20.403Z,22.23
2022-12-14T09:28:22.728Z,19.63
2022-12-14T09:33:25.515Z,19.10
2022-12-14T09:38:30.297Z,19.15
2022-12-14T09:43:40.644Z,26.08
2022-12-14T09:48:43.370Z,21.80
2022-12-14T09:53:50.589Z,19.83
2022-12-14T09:58:56.179Z,15.75
2022-12-14T10:04:06.053Z,13.65
2022-12-14T10:09:17.753Z,13.88
2022-12-14T10:14:26.812Z,13.18
2022-12-14T10:19:37.719Z,15.25
2022-12-14T10:24:45.954Z,14.82
2022-12-14T10:29:52.238Z,13.10
2022-12-14T10:34:54.429Z,12.53
2022-12-14T10:40:29.214Z,12.45
2022-12-14T10:45:43.022Z,12.48
2022-12-14T10:50:54.009Z,12.35
2022-12-14T10:56:03.978Z,10.98
2022-12-14T11:01:12.345Z,13.15
2022-12-14T11:06:18.774Z,11.85
2022-12-14T11:11:24.802Z,11.43
2022-12-14T11:16:36.271Z,11.65
2022-12-14T11:21:39.654Z,11.85
2022-12-14T11:26:44.132Z,10.32
2022-12-14T11:31:48.472Z,10.02
2022-12-14T11:36:50.804Z,9.73
2022-12-14T11:42:02.140Z,10.45
2022-12-14T11:47:11.634Z,9.45
2022-12-14T11:52:16.273Z,8.15
2022-12-14T11:57:25.094Z,8.82
2022-12-14T12:02:30.838Z,8.90
2022-12-14T12:07:35.863Z,9.18
2022-12-14T12:12:52.288Z,8.38
2022-12-14T12:18:01.181Z,8.27
2022-12-14T12:23:10.372Z,8.83
2022-12-14T12:28:18.603Z,10.73
2022-12-14T12:33:31.211Z,10.80
2022-12-14T12:38:50.124Z,9.00
2022-12-14T12:43:57.748Z,8.10
2022-12-14T12:54:09.492Z,10.55
2022-12-14T12:59:20.231Z,8.77
2022-12-14T13:04:33.412Z,9.52
2022-12-14T13:09:44.887Z,9.63
2022-12-14T13:14:51.003Z,10.98
2022-12-14T13:19:57.128Z,10.30
2022-12-14T13:25:08.499Z,7.93
2022-12-14T13:30:25.350Z,7.75
2022-12-14T13:35:51.941Z,11.18
2022-12-14T13:41:29.070Z,8.68
2022-12-14T13:46:34.933Z,8.35
2022-12-14T13:51:41.468Z,9.07
2022-12-14T13:56:45.707Z,8.45
2022-12-14T14:01:59.206Z,10.05
2022-12-14T14:07:49.559Z,9.75
2022-12-14T14:12:52.014Z,10.68
2022-12-14T14:18:05.320Z,10.60
2022-12-14T14:23:31.496Z,10.10
2022-12-14T14:28:34.112Z,10.53
2022-12-14T14:33:47.588Z,10.25
2022-12-14T14:38:52.725Z,10.10
2022-12-14T14:43:59.866Z,10.77
2022-12-14T14:49:04.915Z,11.20
2022-12-14T14:55:10.678Z,10.05
2022-12-14T15:00:00.603Z,11.38
2022-12-14T15:05:40.893Z,11.32
2022-12-14T15:10:34.170Z,12.05
2022-12-14T15:15:42.351Z,11.25
2022-12-14T15:20:57.751Z,11.30
2022-12-14T15:26:02.415Z,12.93
2022-12-14T15:31:04.804Z,10.88
2022-12-14T15:36:14.357Z,12.07
2022-12-14T15:41:18.029Z,12.27
2022-12-14T15:46:25.705Z,12.77
2022-12-14T15:51:33.196Z,26.52
2022-12-14T15:56:38.959Z,13.95
2022-12-14T16:01:46.051Z,15.23
2022-12-14T16:06:57.228Z,13.80
2022-12-14T16:12:03.817Z,13.05
2022-12-14T16:17:06.121Z,14.07
2022-12-14T16:22:20.829Z,12.60
2022-12-14T16:27:25.871Z,15.40
2022-12-14T16:32:28.257Z,15.60
2022-12-14T16:37:33.645Z,15.55
2022-12-14T16:42:36.564Z,22.40
2022-12-14T16:48:06.975Z,19.85
2022-12-14T16:53:17.614Z,24.42
2022-12-14T16:58:19.683Z,17.98
2022-12-14T17:03:23.380Z,19.00
2022-12-14T17:08:27.379Z,16.35
2022-12-14T17:13:29.947Z,16.10
2022-12-14T17:18:35.871Z,14.82
2022-12-14T17:23:43.047Z,15.77
2022-12-14T17:28:45.308Z,17.02
2022-12-14T17:33:51.591Z,15.30
2022-12-14T17:38:55.143Z,14.50
2022-12-14T17:43:58.257Z,15.18
2022-12-14T17:49:04.697Z,15.00
2022-12-14T17:54:15.922Z,14.30
2022-12-14T17:59:18.483Z,14.90
2022-12-14T18:04:20.712Z,16.83
2022-12-14T18:09:24.268Z,24.67
2022-12-14T18:14:26.614Z,21.08
2022-12-14T18:19:28.749Z,25.67
2022-12-14T18:24:32.847Z,24.13
2022-12-14T18:29:56.583Z,30.65
2022-12-14T18:35:27.757Z,25.90
2022-12-14T18:41:00.644Z,19.40
2022-12-14T18:46:32.045Z,17.40
2022-12-14T18:51:35.425Z,16.77
2022-12-14T18:56:40.952Z,15.32
2022-12-14T19:02:06.877Z,16.00
2022-12-14T19:07:11.216Z,17.38
2022-12-14T19:12:14.932Z,15.70
2022-12-14T19:17:17.072Z,15.18
2022-12-14T19:22:19.222Z,16.67
2022-12-14T19:28:00.971Z,15.00
2022-12-14T19:32:44.908Z,14.02
2022-12-14T19:37:51.921Z,13.65
2022-12-14T19:42:55.402Z,13.10
2022-12-14T19:47:57.516Z,13.00
2022-12-14T19:52:59.602Z,14.43
2022-12-14T19:58:03.207Z,12.07
2022-12-14T20:03:06.265Z,15.73
2022-12-14T20:08:09.036Z,14.23
2022-12-14T20:13:12.571Z,13.18
2022-12-14T20:18:14.656Z,12.45
2022-12-14T20:23:16.783Z,13.13
2022-12-14T20:28:20.252Z,13.52
2022-12-14T20:33:28.048Z,13.32
2022-12-14T20:38:32.326Z,14.80
2022-12-14T20:43:37.286Z,15.02
2022-12-14T20:48:39.436Z,17.10
2022-12-14T20:53:41.542Z,14.90
2022-12-14T20:58:47.153Z,16.58
2022-12-14T21:03:49.826Z,16.20
2022-12-14T21:08:52.153Z,13.60
2022-12-14T21:13:56.715Z,14.38
2022-12-14T21:18:58.836Z,15.75
2022-12-14T21:24:01.162Z,14.13
2022-12-14T21:29:05.130Z,12.80
2022-12-14T21:34:08.303Z,15.27
2022-12-14T21:39:11.855Z,21.23
2022-12-14T21:44:16.227Z,17.80
2022-12-14T21:49:18.306Z,15.60
2022-12-14T21:54:20.650Z,13.82
2022-12-14T21:59:26.577Z,12.80
2022-12-14T22:04:33.730Z,12.43
2022-12-14T22:09:40.114Z,13.15
2022-12-14T22:14:43.806Z,14.38
2022-12-14T22:19:46.081Z,14.10
2022-12-14T22:24:49.134Z,14.10
2022-12-14T22:29:52.648Z,14.55
2022-12-14T22:34:54.694Z,15.45
2022-12-14T22:39:56.867Z,13.05
2022-12-14T22:45:00.455Z,12.57
2022-12-14T22:50:02.562Z,12.77
2022-12-14T22:55:05.326Z,13.02
2022-12-14T23:00:12.372Z,12.65
2022-12-14T23:05:14.662Z,12.68
2022-12-14T23:10:17.177Z,12.63
2022-12-14T23:15:20.727Z,11.65
2022-12-14T23:20:22.848Z,11.75
2022-12-14T23:25:24.988Z,13.07
2022-12-14T23:30:28.558Z,13.30
2022-12-14T23:35:30.609Z,11.50
2022-12-14T23:40:32.738Z,11.68
2022-12-14T23:45:36.407Z,12.23
2022-12-14T23:50:38.721Z,11.48
2022-12-14T23:55:40.842Z,10.95
